TimeEDT,TemperatureF,Dew PointF,Humidity,Sea Level PressureIn,VisibilityMPH,Wind Direction,Wind SpeedMPH,Gust SpeedMPH,PrecipitationIn,Events,Conditions,WindDirDegrees,DateUTC
12:58 AM,70.2,64.6,82,30.08,10.0,South,9.2,-,N/A,,Clear,180,2014-04-04 04:58:00
1:58 AM,68.7,64.2,86,30.08,10.0,SW,4.6,-,N/A,,Clear,230,2014-04-04 05:58:00
2:58 AM,67.6,64.0,88,30.06,10.0,WSW,4.6,-,N/A,,Clear,240,2014-04-04 06:58:00
3:58 AM,66.9,63.7,89,30.05,10.0,SW,5.8,-,N/A,,Clear,230,2014-04-04 07:58:00
4:58 AM,66.2,63.3,90,30.04,10.0,SW,5.8,-,N/A,,Clear,220,2014-04-04 08:58:00
5:58 AM,65.5,62.8,91,30.04,10.0,SSW,4.6,-,N/A,,Clear,210,2014-04-04 09:58:00
6:58 AM,64.6,62.2,92,30.05,10.0,SSW,2.3,-,N/A,,Clear,210,2014-04-04 10:58:00
7:58 AM,62.1,60.4,94,30.07,10.0,WNW,1.2,-,N/A,,Clear,290,2014-04-04 11:58:00
8:58 AM,70.9,65.7,83,30.08,10.0,SW,3.5,-,N/A,,Clear,220,2014-04-04 12:58:00
9:58 AM,74.5,64.0,70,30.08,10.0,SSW,10.4,-,N/A,,Clear,210,2014-04-04 13:58:00
10:59 AM,77.5,63.3,61,30.09,10.0,SW,11.5,-,N/A,,Partly Cloudy,220,2014-04-04 14:59:00
11:58 AM,79.9,62.1,54,30.08,10.0,SSW,15.0,20.7,N/A,,Mostly Cloudy,210,2014-04-04 15:58:00
12:59 PM,82.2,61.2,49,30.07,10.0,SSW,10.4,-,N/A,,Scattered Clouds,200,2014-04-04 16:59:00
1:58 PM,83.5,59.9,45,30.06,10.0,SSE,9.2,-,N/A,,Scattered Clouds,160,2014-04-04 17:58:00
2:59 PM,79.5,64.0,59,30.04,10.0,South,11.5,-,N/A,,Partly Cloudy,170,2014-04-04 18:59:00
3:58 PM,81.5,64.4,56,30.03,10.0,South,10.4,-,N/A,,Clear,170,2014-04-04 19:58:00
4:58 PM,81.7,64.2,55,30.03,10.0,South,9.2,-,N/A,,Clear,170,2014-04-04 20:58:00
5:58 PM,78.3,63.1,60,30.02,10.0,South,11.5,-,N/A,,Partly Cloudy,170,2014-04-04 21:58:00
6:58 PM,76.8,65.1,67,30.01,10.0,South,10.4,-,N/A,,Partly Cloudy,170,2014-04-04 22:58:00
7:58 PM,73.8,65.1,74,30.02,10.0,SSE,8.1,-,N/A,,Clear,160,2014-04-04 23:58:00
8:58 PM,72.7,65.8,79,30.03,10.0,South,9.2,-,N/A,,Scattered Clouds,170,2014-04-05 00:58:00
9:58 PM,72.3,66.9,83,30.03,10.0,SSE,8.1,-,N/A,,Clear,160,2014-04-05 01:58:00
10:58 PM,72.5,66.7,82,30.03,10.0,South,9.2,-,N/A,,Clear,180,2014-04-05 02:58:00
11:58 PM,72.0,66.7,84,30.02,10.0,South,9.2,-,N/A,,Clear,180,2014-04-05 03:58:00